sensor_id;sensor_type;location;lat;lon;timestamp;pressure;altitude;pressure_sealevel;temperature;humidity
54329;BME280;40710;51.120;13.136;2023-04-06T00:02:04;99890.22;;;3.24;60.91
54329;BME280;40710;51.120;13.136;2023-04-06T00:04:29;99888.56;;;3.19;60.93
54329;BME280;40710;51.120;13.136;2023-04-06T00:06:53;99884.50;;;3.00;61.71
54329;BME280;40710;51.120;13.136;2023-04-06T00:09:18;99886.22;;;3.01;61.82
54329;BME280;40710;51.120;13.136;2023-04-06T00:11:42;99893.28;;;2.91;62.67
54329;BME280;40710;51.120;13.136;2023-04-06T00:14:07;99895.41;;;2.60;63.42
54329;BME280;40710;51.120;13.136;2023-04-06T00:16:31;99895.19;;;2.77;63.44
54329;BME280;40710;51.120;13.136;2023-04-06T00:18:56;99894.38;;;2.72;63.37
54329;BME280;40710;51.120;13.136;2023-04-06T00:21:20;99885.25;;;3.07;62.55
54329;BME280;40710;51.120;13.136;2023-04-06T00:23:45;99885.53;;;2.87;62.66
54329;BME280;40710;51.120;13.136;2023-04-06T00:26:09;99888.63;;;2.46;63.97
54329;BME280;40710;51.120;13.136;2023-04-06T00:28:34;99879.66;;;2.75;63.15
54329;BME280;40710;51.120;13.136;2023-04-06T00:30:59;99880.59;;;2.68;62.67
54329;BME280;40710;51.120;13.136;2023-04-06T00:33:24;99882.84;;;2.94;62.82
54329;BME280;40710;51.120;13.136;2023-04-06T00:35:49;99879.22;;;3.06;62.25
54329;BME280;40710;51.120;13.136;2023-04-06T00:38:14;99881.31;;;2.79;63.50
54329;BME280;40710;51.120;13.136;2023-04-06T00:40:39;99883.63;;;3.01;62.57
54329;BME280;40710;51.120;13.136;2023-04-06T00:43:04;99877.53;;;3.03;62.49
54329;BME280;40710;51.120;13.136;2023-04-06T00:45:29;99870.66;;;2.98;62.67
54329;BME280;40710;51.120;13.136;2023-04-06T00:47:53;99881.22;;;2.86;63.00
54329;BME280;40710;51.120;13.136;2023-04-06T00:50:18;99869.84;;;2.96;63.16
54329;BME280;40710;51.120;13.136;2023-04-06T00:52:42;99867.13;;;3.05;62.42
54329;BME280;40710;51.120;13.136;2023-04-06T00:55:07;99873.72;;;2.65;63.28
54329;BME280;40710;51.120;13.136;2023-04-06T00:57:32;99868.88;;;3.03;62.73
54329;BME280;40710;51.120;13.136;2023-04-06T00:59:56;99872.38;;;3.00;63.32
54329;BME280;40710;51.120;13.136;2023-04-06T01:02:21;99865.13;;;3.22;62.16
54329;BME280;40710;51.120;13.136;2023-04-06T01:04:45;99863.41;;;3.21;61.85
54329;BME280;40710;51.120;13.136;2023-04-06T01:07:10;99870.56;;;3.07;62.56
54329;BME280;40710;51.120;13.136;2023-04-06T01:09:34;99864.91;;;2.79;63.05
54329;BME280;40710;51.120;13.136;2023-04-06T01:11:59;99879.09;;;2.47;64.05
54329;BME280;40710;51.120;13.136;2023-04-06T01:14:25;99876.63;;;3.05;63.14
54329;BME280;40710;51.120;13.136;2023-04-06T01:16:50;99869.78;;;3.02;62.88
54329;BME280;40710;51.120;13.136;2023-04-06T01:19:15;99868.38;;;3.37;61.63
54329;BME280;40710;51.120;13.136;2023-04-06T01:21:41;99858.00;;;3.37;61.41
54329;BME280;40710;51.120;13.136;2023-04-06T01:24:06;99860.09;;;3.10;62.44
54329;BME280;40710;51.120;13.136;2023-04-06T01:26:32;99856.78;;;3.58;60.68
54329;BME280;40710;51.120;13.136;2023-04-06T01:28:57;99862.25;;;3.41;61.37
54329;BME280;40710;51.120;13.136;2023-04-06T01:31:23;99859.41;;;3.00;61.92
54329;BME280;40710;51.120;13.136;2023-04-06T01:33:47;99859.59;;;2.87;62.71
54329;BME280;40710;51.120;13.136;2023-04-06T01:36:12;99862.78;;;3.06;62.40
54329;BME280;40710;51.120;13.136;2023-04-06T01:38:37;99851.81;;;2.87;62.25
54329;BME280;40710;51.120;13.136;2023-04-06T01:41:01;99849.31;;;2.79;62.68
54329;BME280;40710;51.120;13.136;2023-04-06T01:43:26;99848.88;;;3.08;61.61
54329;BME280;40710;51.120;13.136;2023-04-06T01:45:50;99852.59;;;2.93;62.55
54329;BME280;40710;51.120;13.136;2023-04-06T01:48:15;99840.75;;;3.31;61.83
54329;BME280;40710;51.120;13.136;2023-04-06T01:50:39;99839.47;;;3.57;60.79
54329;BME280;40710;51.120;13.136;2023-04-06T01:53:04;99851.50;;;3.07;62.28
54329;BME280;40710;51.120;13.136;2023-04-06T01:55:29;99845.41;;;3.11;62.81
54329;BME280;40710;51.120;13.136;2023-04-06T01:57:53;99840.25;;;3.08;62.57
54329;BME280;40710;51.120;13.136;2023-04-06T02:00:18;99834.53;;;3.41;60.17
54329;BME280;40710;51.120;13.136;2023-04-06T02:02:42;99834.50;;;3.43;60.28
54329;BME280;40710;51.120;13.136;2023-04-06T02:05:08;99827.47;;;3.50;60.33
54329;BME280;40710;51.120;13.136;2023-04-06T02:07:32;99819.28;;;3.71;59.61
54329;BME280;40710;51.120;13.136;2023-04-06T02:09:57;99826.97;;;3.79;58.93
54329;BME280;40710;51.120;13.136;2023-04-06T02:12:21;99822.00;;;3.67;58.85
54329;BME280;40710;51.120;13.136;2023-04-06T02:14:46;99823.03;;;3.56;59.15
54329;BME280;40710;51.120;13.136;2023-04-06T02:17:10;99812.38;;;3.72;58.89
54329;BME280;40710;51.120;13.136;2023-04-06T02:19:35;99811.34;;;3.81;58.69
54329;BME280;40710;51.120;13.136;2023-04-06T02:21:59;99820.47;;;3.53;59.73
54329;BME280;40710;51.120;13.136;2023-04-06T02:24:24;99818.69;;;3.55;60.03
54329;BME280;40710;51.120;13.136;2023-04-06T02:26:49;99813.19;;;3.74;58.84
54329;BME280;40710;51.120;13.136;2023-04-06T02:29:14;99819.41;;;3.67;59.45
54329;BME280;40710;51.120;13.136;2023-04-06T02:31:38;99818.81;;;3.51;59.63
54329;BME280;40710;51.120;13.136;2023-04-06T02:34:03;99821.22;;;3.62;59.36
54329;BME280;40710;51.120;13.136;2023-04-06T02:36:27;99812.00;;;3.92;58.27
54329;BME280;40710;51.120;13.136;2023-04-06T02:38:52;99822.25;;;3.51;59.78
54329;BME280;40710;51.120;13.136;2023-04-06T02:41:16;99818.00;;;3.95;58.86
54329;BME280;40710;51.120;13.136;2023-04-06T02:43:41;99808.88;;;3.73;59.43
54329;BME280;40710;51.120;13.136;2023-04-06T02:46:05;99811.84;;;4.00;59.25
54329;BME280;40710;51.120;13.136;2023-04-06T02:48:30;99811.66;;;3.62;60.02
54329;BME280;40710;51.120;13.136;2023-04-06T02:50:54;99815.66;;;3.80;59.43
54329;BME280;40710;51.120;13.136;2023-04-06T02:53:19;99807.78;;;3.86;59.73
54329;BME280;40710;51.120;13.136;2023-04-06T02:55:44;99806.94;;;3.84;60.25
54329;BME280;40710;51.120;13.136;2023-04-06T02:58:09;99813.75;;;3.91;59.66
54329;BME280;40710;51.120;13.136;2023-04-06T03:00:33;99823.81;;;3.62;60.12
54329;BME280;40710;51.120;13.136;2023-04-06T03:02:58;99822.78;;;3.72;60.38
54329;BME280;40710;51.120;13.136;2023-04-06T03:05:22;99812.59;;;4.05;58.99
54329;BME280;40710;51.120;13.136;2023-04-06T03:07:47;99817.16;;;3.93;59.15
54329;BME280;40710;51.120;13.136;2023-04-06T03:10:11;99829.22;;;2.92;61.63
54329;BME280;40710;51.120;13.136;2023-04-06T03:12:36;99831.34;;;3.24;61.40
54329;BME280;40710;51.120;13.136;2023-04-06T03:15:01;99828.69;;;3.29;62.04
54329;BME280;40710;51.120;13.136;2023-04-06T03:17:25;99822.78;;;3.70;60.48
54329;BME280;40710;51.120;13.136;2023-04-06T03:19:50;99813.78;;;3.88;59.43
54329;BME280;40710;51.120;13.136;2023-04-06T03:22:14;99813.56;;;4.01;59.16
54329;BME280;40710;51.120;13.136;2023-04-06T03:24:39;99819.16;;;3.79;60.13
54329;BME280;40710;51.120;13.136;2023-04-06T03:27:03;99808.44;;;3.96;59.69
54329;BME280;40710;51.120;13.136;2023-04-06T03:29:28;99815.38;;;3.97;59.51
54329;BME280;40710;51.120;13.136;2023-04-06T03:31:53;99815.38;;;3.95;59.31
54329;BME280;40710;51.120;13.136;2023-04-06T03:34:17;99818.22;;;3.83;60.06
54329;BME280;40710;51.120;13.136;2023-04-06T03:36:42;99822.31;;;3.96;60.23
54329;BME280;40710;51.120;13.136;2023-04-06T03:39:06;99822.09;;;4.09;58.88
54329;BME280;40710;51.120;13.136;2023-04-06T03:41:31;99817.50;;;4.22;58.70
54329;BME280;40710;51.120;13.136;2023-04-06T03:43:55;99824.22;;;4.32;59.09
54329;BME280;40710;51.120;13.136;2023-04-06T03:46:20;99823.25;;;4.38;58.97
54329;BME280;40710;51.120;13.136;2023-04-06T03:48:47;99833.28;;;4.12;59.82
54329;BME280;40710;51.120;13.136;2023-04-06T03:51:12;99823.88;;;4.07;59.50
54329;BME280;40710;51.120;13.136;2023-04-06T03:53:36;99849.63;;;3.71;62.50
54329;BME280;40710;51.120;13.136;2023-04-06T03:56:01;99844.78;;;4.01;61.47
54329;BME280;40710;51.120;13.136;2023-04-06T03:58:25;99843.66;;;4.14;59.84
54329;BME280;40710;51.120;13.136;2023-04-06T04:00:50;99845.25;;;3.74;60.32
54329;BME280;40710;51.120;13.136;2023-04-06T04:03:15;99844.94;;;3.91;60.23
54329;BME280;40710;51.120;13.136;2023-04-06T04:05:39;99834.28;;;4.07;60.17
54329;BME280;40710;51.120;13.136;2023-04-06T04:08:04;99833.81;;;3.83;59.97
54329;BME280;40710;51.120;13.136;2023-04-06T04:10:29;99836.53;;;3.77;60.44
54329;BME280;40710;51.120;13.136;2023-04-06T04:12:53;99836.00;;;4.06;59.85
54329;BME280;40710;51.120;13.136;2023-04-06T04:15:18;99838.50;;;4.12;59.25
54329;BME280;40710;51.120;13.136;2023-04-06T04:17:42;99834.47;;;4.40;58.50
54329;BME280;40710;51.120;13.136;2023-04-06T04:20:11;99835.19;;;4.48;59.00
54329;BME280;40710;51.120;13.136;2023-04-06T04:22:35;99824.47;;;4.62;58.51
54329;BME280;40710;51.120;13.136;2023-04-06T04:25:00;99835.94;;;4.53;58.94
54329;BME280;40710;51.120;13.136;2023-04-06T04:27:24;99825.28;;;4.65;57.76
54329;BME280;40710;51.120;13.136;2023-04-06T04:29:49;99828.13;;;4.53;57.27
54329;BME280;40710;51.120;13.136;2023-04-06T04:32:14;99838.06;;;4.76;57.74
54329;BME280;40710;51.120;13.136;2023-04-06T04:34:39;99835.38;;;4.79;57.54
54329;BME280;40710;51.120;13.136;2023-04-06T04:37:06;99839.09;;;4.67;57.55
54329;BME280;40710;51.120;13.136;2023-04-06T04:39:31;99839.94;;;4.68;57.60
54329;BME280;40710;51.120;13.136;2023-04-06T04:41:55;99841.47;;;4.36;58.55
54329;BME280;40710;51.120;13.136;2023-04-06T04:44:20;99837.00;;;4.43;58.77
54329;BME280;40710;51.120;13.136;2023-04-06T04:46:45;99838.00;;;4.37;58.73
54329;BME280;40710;51.120;13.136;2023-04-06T04:49:09;99840.38;;;4.48;58.75
54329;BME280;40710;51.120;13.136;2023-04-06T04:51:34;99836.94;;;4.47;58.43
54329;BME280;40710;51.120;13.136;2023-04-06T04:53:58;99844.44;;;4.19;59.02
54329;BME280;40710;51.120;13.136;2023-04-06T04:56:23;99843.63;;;4.15;60.06
54329;BME280;40710;51.120;13.136;2023-04-06T04:58:48;99846.81;;;4.30;59.09
54329;BME280;40710;51.120;13.136;2023-04-06T05:01:12;99845.75;;;4.40;59.17
54329;BME280;40710;51.120;13.136;2023-04-06T05:03:37;99857.53;;;4.14;60.47
54329;BME280;40710;51.120;13.136;2023-04-06T05:06:04;99857.69;;;4.07;60.41
54329;BME280;40710;51.120;13.136;2023-04-06T05:08:28;99859.34;;;4.09;60.73
54329;BME280;40710;51.120;13.136;2023-04-06T05:10:53;99853.81;;;4.28;59.67
54329;BME280;40710;51.120;13.136;2023-04-06T05:13:17;99849.44;;;4.30;60.00
54329;BME280;40710;51.120;13.136;2023-04-06T05:15:42;99854.38;;;4.42;60.26
54329;BME280;40710;51.120;13.136;2023-04-06T05:18:08;99856.19;;;4.39;59.87
54329;BME280;40710;51.120;13.136;2023-04-06T05:20:33;99852.81;;;4.33;60.10
54329;BME280;40710;51.120;13.136;2023-04-06T05:22:58;99858.53;;;4.06;60.93
54329;BME280;40710;51.120;13.136;2023-04-06T05:25:23;99854.47;;;4.38;59.87
54329;BME280;40710;51.120;13.136;2023-04-06T05:27:48;99860.38;;;4.01;60.20
54329;BME280;40710;51.120;13.136;2023-04-06T05:30:13;99856.19;;;4.39;59.25
54329;BME280;40710;51.120;13.136;2023-04-06T05:32:38;99862.19;;;4.42;59.92
54329;BME280;40710;51.120;13.136;2023-04-06T05:35:03;99858.91;;;4.32;59.68
54329;BME280;40710;51.120;13.136;2023-04-06T05:37:27;99860.06;;;4.61;58.76
54329;BME280;40710;51.120;13.136;2023-04-06T05:39:52;99856.88;;;4.47;59.31
54329;BME280;40710;51.120;13.136;2023-04-06T05:42:17;99858.66;;;4.87;58.68
54329;BME280;40710;51.120;13.136;2023-04-06T05:44:41;99860.16;;;4.97;58.19
54329;BME280;40710;51.120;13.136;2023-04-06T05:47:06;99854.38;;;5.22;57.32
54329;BME280;40710;51.120;13.136;2023-04-06T05:49:30;99852.75;;;5.18;58.06
54329;BME280;40710;51.120;13.136;2023-04-06T05:51:55;99859.09;;;5.06;58.17
54329;BME280;40710;51.120;13.136;2023-04-06T05:54:19;99862.69;;;5.02;58.41
54329;BME280;40710;51.120;13.136;2023-04-06T05:56:44;99865.16;;;5.06;58.82
54329;BME280;40710;51.120;13.136;2023-04-06T05:59:08;99865.16;;;5.06;58.13
54329;BME280;40710;51.120;13.136;2023-04-06T06:01:33;99869.50;;;5.07;58.67
54329;BME280;40710;51.120;13.136;2023-04-06T06:04:00;99862.88;;;5.32;57.73
54329;BME280;40710;51.120;13.136;2023-04-06T06:06:25;99864.16;;;5.49;57.11
54329;BME280;40710;51.120;13.136;2023-04-06T06:08:51;99859.47;;;5.64;56.63
54329;BME280;40710;51.120;13.136;2023-04-06T06:11:15;99860.03;;;5.77;56.33
54329;BME280;40710;51.120;13.136;2023-04-06T06:13:40;99864.09;;;5.87;56.92
54329;BME280;40710;51.120;13.136;2023-04-06T06:16:05;99858.53;;;6.01;56.50
54329;BME280;40710;51.120;13.136;2023-04-06T06:18:29;99854.13;;;6.03;55.71
54329;BME280;40710;51.120;13.136;2023-04-06T06:20:54;99861.63;;;6.15;56.32
54329;BME280;40710;51.120;13.136;2023-04-06T06:23:18;99857.00;;;6.27;57.29
54329;BME280;40710;51.120;13.136;2023-04-06T06:25:43;99864.44;;;6.40;56.24
54329;BME280;40710;51.120;13.136;2023-04-06T06:28:07;99859.09;;;6.45;55.81
54329;BME280;40710;51.120;13.136;2023-04-06T06:30:32;99860.53;;;6.55;55.66
54329;BME280;40710;51.120;13.136;2023-04-06T06:32:56;99851.50;;;6.36;55.32
54329;BME280;40710;51.120;13.136;2023-04-06T06:35:21;99851.94;;;6.81;54.35
54329;BME280;40710;51.120;13.136;2023-04-06T06:37:45;99856.03;;;6.90;54.17
54329;BME280;40710;51.120;13.136;2023-04-06T06:40:10;99854.91;;;6.69;54.56
54329;BME280;40710;51.120;13.136;2023-04-06T06:42:37;99862.34;;;6.83;53.93
54329;BME280;40710;51.120;13.136;2023-04-06T06:45:01;99855.06;;;7.23;52.93
54329;BME280;40710;51.120;13.136;2023-04-06T06:47:26;99850.09;;;7.42;52.40
54329;BME280;40710;51.120;13.136;2023-04-06T06:49:51;99853.34;;;7.48;52.42
54329;BME280;40710;51.120;13.136;2023-04-06T06:52:15;99852.19;;;7.57;52.50
54329;BME280;40710;51.120;13.136;2023-04-06T06:54:40;99849.44;;;7.87;52.25
54329;BME280;40710;51.120;13.136;2023-04-06T06:57:04;99844.31;;;8.34;51.33
54329;BME280;40710;51.120;13.136;2023-04-06T06:59:29;99841.97;;;8.51;50.56
54329;BME280;40710;51.120;13.136;2023-04-06T07:01:53;99843.69;;;8.52;50.67
54329;BME280;40710;51.120;13.136;2023-04-06T07:04:18;99845.09;;;8.36;50.25
54329;BME280;40710;51.120;13.136;2023-04-06T07:06:42;99842.44;;;8.38;49.66
54329;BME280;40710;51.120;13.136;2023-04-06T07:09:07;99833.31;;;8.73;48.72
54329;BME280;40710;51.120;13.136;2023-04-06T07:11:32;99836.34;;;8.37;48.57
54329;BME280;40710;51.120;13.136;2023-04-06T07:13:56;99840.06;;;9.24;47.19
54329;BME280;40710;51.120;13.136;2023-04-06T07:16:21;99824.16;;;9.50;45.02
54329;BME280;40710;51.120;13.136;2023-04-06T07:18:46;99825.44;;;9.19;46.64
54329;BME280;40710;51.120;13.136;2023-04-06T07:21:10;99833.19;;;9.64;45.68
54329;BME280;40710;51.120;13.136;2023-04-06T07:23:35;99821.16;;;9.59;44.27
54329;BME280;40710;51.120;13.136;2023-04-06T07:25:59;99825.44;;;9.61;43.46
54329;BME280;40710;51.120;13.136;2023-04-06T07:28:24;99833.84;;;9.70;43.46
54329;BME280;40710;51.120;13.136;2023-04-06T07:30:48;99823.78;;;9.59;43.57
54329;BME280;40710;51.120;13.136;2023-04-06T07:33:13;99836.72;;;8.75;44.98
54329;BME280;40710;51.120;13.136;2023-04-06T07:35:37;99828.94;;;9.18;43.38
54329;BME280;40710;51.120;13.136;2023-04-06T07:38:02;99822.16;;;9.77;41.94
54329;BME280;40710;51.120;13.136;2023-04-06T07:40:27;99827.81;;;10.09;41.79
54329;BME280;40710;51.120;13.136;2023-04-06T07:42:51;99823.94;;;10.38;41.94
54329;BME280;40710;51.120;13.136;2023-04-06T07:45:16;99807.22;;;11.67;39.52
54329;BME280;40710;51.120;13.136;2023-04-06T07:47:40;99809.41;;;12.45;38.13
54329;BME280;40710;51.120;13.136;2023-04-06T07:50:05;99812.59;;;12.99;38.46
54329;BME280;40710;51.120;13.136;2023-04-06T07:52:30;99812.91;;;12.93;36.46
54329;BME280;40710;51.120;13.136;2023-04-06T07:54:56;99811.28;;;13.38;36.40
54329;BME280;40710;51.120;13.136;2023-04-06T07:57:20;99814.13;;;12.88;36.60
54329;BME280;40710;51.120;13.136;2023-04-06T07:59:45;99798.28;;;14.68;32.80
54329;BME280;40710;51.120;13.136;2023-04-06T08:02:09;99797.44;;;16.15;30.31
54329;BME280;40710;51.120;13.136;2023-04-06T08:04:35;99783.78;;;17.67;28.97
54329;BME280;40710;51.120;13.136;2023-04-06T08:06:59;99796.09;;;17.33;28.68
54329;BME280;40710;51.120;13.136;2023-04-06T08:09:24;99798.06;;;15.93;29.86
54329;BME280;40710;51.120;13.136;2023-04-06T08:11:48;99799.25;;;16.77;29.16
54329;BME280;40710;51.120;13.136;2023-04-06T08:14:13;99804.91;;;15.29;29.01
54329;BME280;40710;51.120;13.136;2023-04-06T08:16:38;99795.69;;;16.52;27.08
54329;BME280;40710;51.120;13.136;2023-04-06T08:19:02;99791.69;;;16.96;25.49
54329;BME280;40710;51.120;13.136;2023-04-06T08:21:28;99784.03;;;18.11;23.80
54329;BME280;40710;51.120;13.136;2023-04-06T08:23:53;99791.63;;;16.85;25.59
54329;BME280;40710;51.120;13.136;2023-04-06T08:26:17;99790.78;;;18.60;24.13
54329;BME280;40710;51.120;13.136;2023-04-06T08:28:42;99796.59;;;18.20;24.85
54329;BME280;40710;51.120;13.136;2023-04-06T08:31:07;99787.44;;;19.45;25.58
54329;BME280;40710;51.120;13.136;2023-04-06T08:33:33;99789.38;;;19.43;26.06
54329;BME280;40710;51.120;13.136;2023-04-06T08:36:07;99794.91;;;18.64;27.91
54329;BME280;40710;51.120;13.136;2023-04-06T08:38:31;99775.00;;;19.88;25.07
54329;BME280;40710;51.120;13.136;2023-04-06T08:40:56;99774.66;;;20.33;24.60
54329;BME280;40710;51.120;13.136;2023-04-06T08:43:22;99782.13;;;19.67;26.14
54329;BME280;40710;51.120;13.136;2023-04-06T08:45:48;99776.16;;;21.07;24.55
54329;BME280;40710;51.120;13.136;2023-04-06T08:48:14;99771.53;;;19.97;22.54
54329;BME280;40710;51.120;13.136;2023-04-06T08:50:39;99783.47;;;19.93;24.43
54329;BME280;40710;51.120;13.136;2023-04-06T08:53:06;99792.69;;;18.58;25.90
54329;BME280;40710;51.120;13.136;2023-04-06T08:55:30;99782.31;;;18.44;24.64
54329;BME280;40710;51.120;13.136;2023-04-06T08:57:56;99777.44;;;18.71;24.23
54329;BME280;40710;51.120;13.136;2023-04-06T09:00:21;99769.09;;;20.46;23.90
54329;BME280;40710;51.120;13.136;2023-04-06T09:02:45;99766.50;;;20.35;22.74
54329;BME280;40710;51.120;13.136;2023-04-06T09:05:10;99763.22;;;21.22;20.91
54329;BME280;40710;51.120;13.136;2023-04-06T09:07:36;99791.59;;;18.72;24.96
54329;BME280;40710;51.120;13.136;2023-04-06T09:10:02;99798.78;;;16.59;25.94
54329;BME280;40710;51.120;13.136;2023-04-06T09:12:28;99825.22;;;15.02;27.25
54329;BME280;40710;51.120;13.136;2023-04-06T09:14:54;99821.88;;;14.71;29.11
54329;BME280;40710;51.120;13.136;2023-04-06T09:17:21;99817.31;;;14.30;29.39
54329;BME280;40710;51.120;13.136;2023-04-06T09:19:46;99816.09;;;14.21;28.89
54329;BME280;40710;51.120;13.136;2023-04-06T09:22:11;99814.97;;;14.40;28.14
54329;BME280;40710;51.120;13.136;2023-04-06T09:24:40;99811.66;;;14.50;28.74
54329;BME280;40710;51.120;13.136;2023-04-06T09:27:05;99775.56;;;19.17;24.25
54329;BME280;40710;51.120;13.136;2023-04-06T09:29:29;99764.03;;;20.43;22.76
54329;BME280;40710;51.120;13.136;2023-04-06T09:32:05;99766.16;;;21.39;22.86
54329;BME280;40710;51.120;13.136;2023-04-06T09:34:31;99781.13;;;18.37;24.70
54329;BME280;40710;51.120;13.136;2023-04-06T09:36:56;99767.28;;;19.53;21.34
54329;BME280;40710;51.120;13.136;2023-04-06T09:39:21;99761.75;;;20.79;19.91
54329;BME280;40710;51.120;13.136;2023-04-06T09:41:50;99764.38;;;19.98;21.05
54329;BME280;40710;51.120;13.136;2023-04-06T09:44:15;99754.47;;;19.46;20.05
54329;BME280;40710;51.120;13.136;2023-04-06T09:46:41;99754.94;;;20.25;20.23
54329;BME280;40710;51.120;13.136;2023-04-06T09:49:08;99767.69;;;19.16;20.20
54329;BME280;40710;51.120;13.136;2023-04-06T09:51:41;99782.22;;;17.41;22.95
54329;BME280;40710;51.120;13.136;2023-04-06T09:54:11;99776.94;;;16.30;22.81
54329;BME280;40710;51.120;13.136;2023-04-06T09:59:55;99754.53;;;20.60;19.39
54329;BME280;40710;51.120;13.136;2023-04-06T10:02:43;99742.53;;;21.73;18.89
54329;BME280;40710;51.120;13.136;2023-04-06T10:07:45;99755.31;;;20.51;19.31
54329;BME280;40710;51.120;13.136;2023-04-06T10:10:12;99735.00;;;22.61;18.37
54329;BME280;40710;51.120;13.136;2023-04-06T10:12:39;99748.84;;;21.72;18.87
54329;BME280;40710;51.120;13.136;2023-04-06T10:15:04;99750.72;;;19.91;19.02
54329;BME280;40710;51.120;13.136;2023-04-06T10:17:29;99747.19;;;19.49;19.03
54329;BME280;40710;51.120;13.136;2023-04-06T10:20:10;99741.13;;;21.40;18.45
54329;BME280;40710;51.120;13.136;2023-04-06T10:22:45;99739.66;;;19.54;19.32
54329;BME280;40710;51.120;13.136;2023-04-06T10:25:16;99743.84;;;20.60;18.72
54329;BME280;40710;51.120;13.136;2023-04-06T10:27:41;99730.84;;;21.74;18.49
54329;BME280;40710;51.120;13.136;2023-04-06T10:30:06;99716.97;;;22.26;17.54
54329;BME280;40710;51.120;13.136;2023-04-06T10:32:36;99721.31;;;22.64;18.00
54329;BME280;40710;51.120;13.136;2023-04-06T10:35:10;99714.84;;;23.03;17.63
54329;BME280;40710;51.120;13.136;2023-04-06T10:37:50;99721.25;;;22.19;18.19
54329;BME280;40710;51.120;13.136;2023-04-06T10:40:26;99744.91;;;21.18;20.94
54329;BME280;40710;51.120;13.136;2023-04-06T10:42:53;99729.75;;;21.47;18.19
54329;BME280;40710;51.120;13.136;2023-04-06T10:45:25;99733.81;;;20.43;19.75
54329;BME280;40710;51.120;13.136;2023-04-06T10:47:54;99731.13;;;22.18;19.44
54329;BME280;40710;51.120;13.136;2023-04-06T10:50:19;99730.03;;;21.15;19.88
54329;BME280;40710;51.120;13.136;2023-04-06T10:52:45;99740.53;;;19.22;19.62
54329;BME280;40710;51.120;13.136;2023-04-06T10:55:12;99736.34;;;20.94;19.89
54329;BME280;40710;51.120;13.136;2023-04-06T10:57:37;99717.16;;;21.87;17.91
54329;BME280;40710;51.120;13.136;2023-04-06T11:00:06;99737.19;;;19.62;19.17
54329;BME280;40710;51.120;13.136;2023-04-06T11:02:32;99721.31;;;22.37;17.83
54329;BME280;40710;51.120;13.136;2023-04-06T11:04:57;99720.72;;;22.71;17.75
54329;BME280;40710;51.120;13.136;2023-04-06T11:07:26;99714.59;;;22.96;17.89
54329;BME280;40710;51.120;13.136;2023-04-06T11:09:51;99711.16;;;22.13;17.20
54329;BME280;40710;51.120;13.136;2023-04-06T11:12:27;99705.94;;;21.54;18.08
54329;BME280;40710;51.120;13.136;2023-04-06T11:14:56;99704.28;;;22.83;17.11
54329;BME280;40710;51.120;13.136;2023-04-06T11:17:26;99743.88;;;18.48;19.91
54329;BME280;40710;51.120;13.136;2023-04-06T11:19:50;99743.13;;;18.12;21.49
54329;BME280;40710;51.120;13.136;2023-04-06T11:22:15;99730.81;;;18.22;21.56
54329;BME280;40710;51.120;13.136;2023-04-06T11:24:40;99747.78;;;16.67;23.77
54329;BME280;40710;51.120;13.136;2023-04-06T11:27:05;99740.41;;;17.31;23.64
54329;BME280;40710;51.120;13.136;2023-04-06T11:29:30;99740.44;;;16.83;24.22
54329;BME280;40710;51.120;13.136;2023-04-06T11:32:00;99736.94;;;17.07;24.15
54329;BME280;40710;51.120;13.136;2023-04-06T11:34:27;99731.09;;;17.26;24.20
54329;BME280;40710;51.120;13.136;2023-04-06T11:36:57;99728.91;;;17.19;24.60
54329;BME280;40710;51.120;13.136;2023-04-06T11:39:24;99714.69;;;19.13;23.90
54329;BME280;40710;51.120;13.136;2023-04-06T11:41:51;99711.91;;;20.08;22.16
54329;BME280;40710;51.120;13.136;2023-04-06T11:44:31;99705.41;;;18.96;21.76
54329;BME280;40710;51.120;13.136;2023-04-06T11:46:57;99696.00;;;20.37;21.04
54329;BME280;40710;51.120;13.136;2023-04-06T11:49:29;99704.88;;;19.76;21.51
54329;BME280;40710;51.120;13.136;2023-04-06T11:51:54;99685.72;;;20.83;20.30
54329;BME280;40710;51.120;13.136;2023-04-06T11:54:29;99683.06;;;20.83;20.63
54329;BME280;40710;51.120;13.136;2023-04-06T11:56:54;99671.94;;;21.17;20.04
54329;BME280;40710;51.120;13.136;2023-04-06T11:59:20;99671.03;;;21.56;19.12
54329;BME280;40710;51.120;13.136;2023-04-06T12:01:45;99667.25;;;21.96;18.89
54329;BME280;40710;51.120;13.136;2023-04-06T12:04:10;99670.56;;;22.63;18.76
54329;BME280;40710;51.120;13.136;2023-04-06T12:06:34;99656.56;;;22.51;17.93
54329;BME280;40710;51.120;13.136;2023-04-06T12:08:59;99654.19;;;22.20;17.52
54329;BME280;40710;51.120;13.136;2023-04-06T12:11:24;99665.13;;;21.99;18.43
54329;BME280;40710;51.120;13.136;2023-04-06T12:13:48;99653.75;;;21.97;17.74
54329;BME280;40710;51.120;13.136;2023-04-06T12:16:13;99672.50;;;20.91;19.01
54329;BME280;40710;51.120;13.136;2023-04-06T12:18:38;99662.91;;;21.28;19.12
54329;BME280;40710;51.120;13.136;2023-04-06T12:21:03;99657.00;;;21.24;17.94
54329;BME280;40710;51.120;13.136;2023-04-06T12:23:27;99674.06;;;20.24;19.55
54329;BME280;40710;51.120;13.136;2023-04-06T12:25:52;99651.50;;;21.36;17.89
54329;BME280;40710;51.120;13.136;2023-04-06T12:28:17;99661.75;;;20.52;18.78
54329;BME280;40710;51.120;13.136;2023-04-06T12:30:41;99656.78;;;20.28;18.89
54329;BME280;40710;51.120;13.136;2023-04-06T12:33:06;99669.69;;;19.40;20.09
54329;BME280;40710;51.120;13.136;2023-04-06T12:35:34;99657.66;;;20.58;18.77
54329;BME280;40710;51.120;13.136;2023-04-06T12:37:59;99660.25;;;21.08;19.85
54329;BME280;40710;51.120;13.136;2023-04-06T12:40:24;99655.41;;;20.44;19.49
54329;BME280;40710;51.120;13.136;2023-04-06T12:42:48;99660.25;;;20.09;19.69
54329;BME280;40710;51.120;13.136;2023-04-06T12:45:13;99637.09;;;21.66;18.44
54329;BME280;40710;51.120;13.136;2023-04-06T12:47:38;99623.66;;;22.41;18.14
54329;BME280;40710;51.120;13.136;2023-04-06T12:50:02;99626.91;;;22.35;18.71
54329;BME280;40710;51.120;13.136;2023-04-06T12:52:27;99633.50;;;21.85;19.76